Pagina principale
METAR-TAF:

METAR-TAF

Aeroporti :

Aeroporto Internazionale di Palau

Koror, Babeldaob, Palau

latitudine: 07-22N, longitudine: 134-32E, altezza: 54 m

Osservazione

Il bollettino è stato emesso 46 minuti fa, alle 20:50 UTC
Vento 3 kt da nord/nord-est
Temperature 24°C
Umidità 94%
Pressione 1009 hPa
Visibilità: 24.1 km
Poco nuvoloso ad un'altezza di 1600 ft, Cumulo congesto.
Nubi sparse ad un'altezza di 12000 ft
Nuvoloso ad un'altezza di 30000 ft

METAR: PTRO 202050Z 03003KT 15SM FEW016TCU SCT120 BKN300 24/23 A2981 RMK TCU W-N

Ora: 06:36 (21:36 UTC)

Previsione

Il bollettino è stato emesso 4 ore e 7 minuti fa, alle 17:29 UTC
Previsione valida dal 20 alle 18 UTC al 21 alle 18 UTC
Vento 5 kt da direzioni variabili
Visibilità: 10 km
Nubi sparse ad un'altezza di 1600 ft
Nuvoloso ad un'altezza di 12000 ft
rovesci nelle vicinanze

TAF: PTRO 201729Z 2018/2118 VRB05KT P6SM VCSH SCT016 BKN120

Osservazioni e previsioni meteorologiche di più di 4000 aeroporti (messaggi METAR e TAF).

Le stazioni disponibili sono rappresentate dai dischi gialli e rossi sulla carta.

Puntare il mouse per vedere il nome della stazione.

Clicca sopra per visualizzare le osservazioni e previsioni meteorologiche.

Per cambiare la mappa : fare clic sui pulsanti verdi con una croce nera per ingrandire, il pulsante verde con un trattino per diminuire, o sulla freccia verde per le mappe adiacenti.


METAR-TAF: